Aviation Digital Data Service (ADDS)

Output produced by METARs form (2247 UTC 23 March 2019)
found at http://www.aviationweather.gov/metar/data/
 
Forecast for: SYCJ (GEORGETOWN/TIMEH, GY)
Text: TAF SYCJ 231700Z 2318/2418 05014KT 9999 BKN020
Forecast period: 1800 to 2200 UTC 23 March 2019
Forecast type: FROM: standard forecast or significant change
Winds: from the NE (50 degrees) at 16 MPH (14 knots; 7.2 m/s)
Visibility: 6 or more miles 10+ km)
Ceiling: 2000 feet AGL
Clouds: broken clouds at 2000 feet AGL
Weather: no significant weather forecast for this period
Text: BECMG 2322/2400 06004KT FEW018
Forecast period: 2200 UTC 23 March 2019 to 0500 UTC 24 March 2019
Forecast type: BECOMING: Conditions expected to become as follows by 0000 UTC 24 March 2019
Winds: from the ENE (60 degrees) at 5 MPH (4 knots; 2.1 m/s)
Visibility: 6 or more miles 10+ km)
Ceiling: at least 12,000 feet AGL
Clouds: few clouds at 1800 feet AGL
Weather: no significant weather forecast for this period
Text: BECMG 2405/2407 VRB02KT 4000 BR FEW016 SCT038
Forecast period: 0500 to 1800 UTC 24 March 2019
Forecast type: BECOMING: Conditions expected to become as follows by 0700 UTC 24 March 2019
Winds: variable direction winds at 2 MPH (2 knots; 1.0 m/s)
Visibility: 2.49 miles (4.01 km)
Ceiling: at least 12,000 feet AGL
Clouds: few clouds at 1600 feet AGL
scattered clouds at 3800 feet AGL
Weather: BR  (mist)